Impacts TAF Board
For situational awareness. Not to be used for flight planning purposes.
IDs:

KCLT - Charlotte/Douglas In, NC, US

Issued at 2338 UTC 22 Oct 2018
Updated at 0251 UTC 23 Oct 2018
Potential Impact None Slight Moderate High
Time0152Z 23/03Z 23/04Z 23/05Z 23/06Z 23/07Z 23/08Z 23/09Z 23/10Z 23/11Z 23/12Z 23/13Z 23/14Z 23/15Z>>
Type OBS PRVL PRVL PRVL PRVL PRVL PRVL PRVL PRVL PRVL PRVL PRVL PRVL PRVL
VIS 10 >6 >6 >6 >6 >6 >6 >6 >6 >6 >6 >6 >6 >6
CIG 250 250 250 250 250 250 250 250 250 250 250 250 250 --
Cover BKN BKN BKN BKN BKN BKN BKN BKN BKN BKN BKN BKN BKN SCT
FltCat VFR VFR VFR VFR VFR VFR VFR VFR VFR VFR VFR VFR VFR VFR
WX -- -- -- -- -- -- -- -- -- -- -- -- -- --
WDir VRB 210 210 210 210 210 210 210 210 210 210 210 210 240
WSpd 0 3 3 3 3 3 3 3 3 3 3 3 3 6
WGst -- -- -- -- -- -- -- -- -- -- -- -- -- --
Raw TAF
KCLT 222338Z 2300/2406 21003KT P6SM SCT150 BKN250
  FM231500 24006KT P6SM SCT250
  FM240200 32003KT P6SM FEW250


Raw METAR
KCLT 230152Z 00000KT 10SM SCT220 BKN250 11/06 A3026 RMK AO2 SLP246 T01110061
KCLT 230052Z 21004KT 10SM FEW210 BKN250 11/06 A3026 RMK AO2 SLP245 T01110061
KCLT 222352Z 23003KT 10SM FEW210 BKN250 12/06 A3025 RMK AO2 SLP246 T01220056 10178 20122 55000

METAR Board
Radar Display
Forecast Discussion
For situational awareness. Not to be used for flight planning purposes.